Time;durP1;ratioP1;P1;durP2;ratioP2;P2;SDS_P1;SDS_P2;PMS_P1;PMS_P2;Temp;Humidity;BMP_temperature;BMP_pressure;BME280_temperature;BME280_humidity;BME280_pressure;Samples;Min_cycle;Max_cycle;Signal;HPM_P1;HPM_P2
2024/01/19 00:00:10;;;;;;;3.15;2.92;;;0.10;1.00;;;;;;5094435;28;20172;-72
2024/01/19 00:02:35;;;;;;;4.60;3.03;;;0.10;1.00;;;;;;5094224;28;20201;-72
2024/01/19 00:05:01;;;;;;;2.40;2.30;;;0.20;1.00;;;;;;5093214;28;20531;-72
2024/01/19 00:07:27;;;;;;;6.10;3.20;;;0.20;1.00;;;;;;5094162;28;20172;-71
2024/01/19 00:09:52;;;;;;;3.23;2.93;;;0.20;1.00;;;;;;5076336;28;20577;-75
2024/01/19 00:12:18;;;;;;;3.77;2.43;;;0.20;1.00;;;;;;5094199;28;20567;-74
2024/01/19 00:14:44;;;;;;;2.77;2.47;;;0.20;1.00;;;;;;5093194;28;20190;-72
2024/01/19 00:17:09;;;;;;;4.53;3.50;;;0.30;1.00;;;;;;5093922;28;20268;-73
2024/01/19 00:19:35;;;;;;;3.07;2.77;;;0.30;1.00;;;;;;5076050;28;20231;-72
2024/01/19 00:22:01;;;;;;;3.40;3.20;;;0.40;1.00;;;;;;5093974;28;20165;-72
2024/01/19 00:24:26;;;;;;;3.27;2.93;;;0.40;1.00;;;;;;5093047;28;20186;-72
2024/01/19 00:26:54;;;;;;;4.23;2.97;;;0.50;1.00;;;;;;5093973;28;20176;-72
2024/01/19 00:29:19;;;;;;;2.90;2.70;;;0.50;1.00;;;;;;5093869;28;20161;-75
2024/01/19 00:31:45;;;;;;;3.80;3.57;;;0.50;1.00;;;;;;5075650;28;20260;-72
2024/01/19 00:34:12;;;;;;;3.47;3.27;;;0.50;2.00;;;;;;5074660;28;20598;-76
2024/01/19 00:36:38;;;;;;;3.67;2.90;;;0.50;25.10;;;;;;5075622;28;20189;-72
2024/01/19 00:39:04;;;;;;;3.93;3.73;;;0.50;25.20;;;;;;5075575;28;20934;-72
2024/01/19 00:41:30;;;;;;;4.43;3.53;;;0.50;41.90;;;;;;5093607;28;20405;-71
2024/01/19 00:43:55;;;;;;;3.87;2.60;;;0.60;59.20;;;;;;5092637;28;20809;-72
2024/01/19 00:46:21;;;;;;;2.90;2.57;;;0.60;73.40;;;;;;5093518;28;20411;-75
2024/01/19 00:48:47;;;;;;;3.87;3.47;;;0.70;86.40;;;;;;5093690;28;20648;-77
2024/01/19 00:51:14;;;;;;;3.08;2.88;;;0.60;92.90;;;;;;5093533;28;20548;-72
2024/01/19 00:53:39;;;;;;;3.33;3.13;;;0.60;99.90;;;;;;5092460;28;20180;-73
2024/01/19 00:56:07;;;;;;;4.07;3.30;;;0.70;99.90;;;;;;5075309;28;20490;-76
2024/01/19 00:58:32;;;;;;;6.20;2.88;;;0.60;99.90;;;;;;5093503;28;20162;-72
2024/01/19 01:00:58;;;;;;;5.70;3.70;;;0.50;99.90;;;;;;5075513;28;20186;-72
2024/01/19 01:03:25;;;;;;;3.67;3.47;;;0.50;99.90;;;;;;5074477;28;20492;-73
2024/01/19 01:05:56;;;;;;;2.95;2.75;;;0.50;99.90;;;;;;5093022;28;20225;-76
2024/01/19 01:08:23;;;;;;;5.13;3.10;;;0.50;99.90;;;;;;5093536;28;20248;-77
2024/01/19 01:10:49;;;;;;;4.30;3.13;;;0.60;99.90;;;;;;5093459;28;20399;-72
2024/01/19 01:13:14;;;;;;;3.40;2.97;;;0.60;99.90;;;;;;5092491;28;20737;-77
2024/01/19 01:15:41;;;;;;;2.93;2.63;;;0.60;99.90;;;;;;5093193;28;20193;-72
2024/01/19 01:18:06;;;;;;;3.10;2.90;;;0.60;99.90;;;;;;5093173;28;20189;-77
2024/01/19 01:20:32;;;;;;;3.03;2.83;;;0.60;99.90;;;;;;5093371;28;20763;-72
2024/01/19 01:22:58;;;;;;;5.80;2.83;;;0.60;99.90;;;;;;5092498;28;20165;-76
2024/01/19 01:25:23;;;;;;;26.30;3.43;;;0.60;99.90;;;;;;5093246;28;20189;-74
2024/01/19 01:27:49;;;;;;;3.17;2.90;;;0.50;99.90;;;;;;5093247;28;20635;-73
2024/01/19 01:30:15;;;;;;;3.63;2.80;;;0.50;99.90;;;;;;5093164;28;20166;-76
2024/01/19 01:32:40;;;;;;;4.77;2.93;;;0.50;99.90;;;;;;5093055;28;20178;-76
2024/01/19 01:35:07;;;;;;;3.67;2.00;;;0.50;99.90;;;;;;5074333;28;20683;-79
2024/01/19 01:37:32;;;;;;;5.40;2.25;;;0.50;99.90;;;;;;5093146;28;20280;-72
2024/01/19 01:39:58;;;;;;;1.97;1.87;;;0.50;99.90;;;;;;5093097;28;20254;-77
2024/01/19 01:42:24;;;;;;;5.67;1.73;;;0.50;99.90;;;;;;5093195;28;20158;-77
2024/01/19 01:44:49;;;;;;;2.93;2.30;;;0.60;99.90;;;;;;5092058;28;20688;-77
2024/01/19 01:47:16;;;;;;;5.90;2.00;;;0.60;99.90;;;;;;5093116;28;20165;-77
2024/01/19 01:49:42;;;;;;;2.53;2.05;;;0.50;99.90;;;;;;5074985;28;20177;-76
2024/01/19 01:52:09;;;;;;;2.73;1.93;;;0.50;99.90;;;;;;5092971;28;20660;-72
2024/01/19 01:54:35;;;;;;;3.13;2.00;;;0.60;99.90;;;;;;5092057;28;20185;-72
2024/01/19 01:57:02;;;;;;;3.73;2.00;;;0.60;99.90;;;;;;5092972;28;20523;-72
2024/01/19 01:59:29;;;;;;;2.10;1.88;;;0.60;99.90;;;;;;5092858;28;20392;-73
2024/01/19 02:01:55;;;;;;;2.33;2.13;;;0.60;99.90;;;;;;5075117;28;20503;-72
2024/01/19 02:04:21;;;;;;;1.90;1.80;;;0.70;99.90;;;;;;5091788;28;20264;-76
2024/01/19 02:06:47;;;;;;;2.00;1.90;;;0.60;99.90;;;;;;5092891;28;20168;-72
2024/01/19 02:09:13;;;;;;;2.40;2.20;;;0.70;99.90;;;;;;5092925;28;20399;-72
2024/01/19 02:11:39;;;;;;;2.00;1.80;;;0.70;99.90;;;;;;5092893;28;20162;-77
2024/01/19 02:14:06;;;;;;;3.03;2.20;;;0.70;99.90;;;;;;5091778;28;20450;-77
2024/01/19 02:16:33;;;;;;;2.70;2.20;;;0.70;99.40;;;;;;5093437;28;20450;-76
2024/01/19 02:18:58;;;;;;;5.57;2.17;;;0.80;98.40;;;;;;5096457;28;20476;-73
2024/01/19 02:21:24;;;;;;;2.80;1.70;;;0.80;97.00;;;;;;5078490;28;20439;-72
2024/01/19 02:23:59;;;;;;;1.90;1.80;;;0.70;99.90;;;;;;5095380;28;20211;-77
2024/01/19 02:26:24;;;;;;;8.40;2.17;;;0.60;99.90;;;;;;5078009;28;20532;-72
2024/01/19 02:28:51;;;;;;;2.50;1.97;;;0.50;99.90;;;;;;5096269;28;20403;-72
2024/01/19 02:31:16;;;;;;;3.63;2.38;;;0.50;99.90;;;;;;5096231;28;20240;-77
2024/01/19 02:33:42;;;;;;;2.30;2.10;;;0.50;99.90;;;;;;5095238;28;20706;-76
2024/01/19 02:36:09;;;;;;;2.10;2.00;;;0.50;99.90;;;;;;5095932;28;20667;-76
2024/01/19 02:38:35;;;;;;;3.10;1.80;;;0.50;99.90;;;;;;5096086;28;20207;-72
2024/01/19 02:41:01;;;;;;;1.80;1.70;;;0.50;99.90;;;;;;5095987;28;20176;-76
2024/01/19 02:43:26;;;;;;;2.07;1.87;;;0.40;99.90;;;;;;5095165;28;20244;-71
2024/01/19 02:45:52;;;;;;;2.30;2.20;;;0.40;99.90;;;;;;5095959;28;20676;-76
2024/01/19 02:48:17;;;;;;;3.00;2.50;;;0.40;99.90;;;;;;5095982;28;20579;-72
2024/01/19 02:50:43;;;;;;;2.50;2.30;;;0.30;99.90;;;;;;5095757;28;20587;-72
2024/01/19 02:53:09;;;;;;;2.33;2.10;;;0.30;99.90;;;;;;5076791;28;20177;-76
2024/01/19 02:55:35;;;;;;;1.77;1.67;;;0.30;99.90;;;;;;5095588;28;20542;-72
2024/01/19 02:58:00;;;;;;;3.47;2.40;;;0.20;99.90;;;;;;5095708;28;20281;-77
2024/01/19 03:00:26;;;;;;;2.10;2.00;;;0.20;99.90;;;;;;5095683;28;20614;-72
2024/01/19 03:02:52;;;;;;;1.77;1.67;;;0.20;99.90;;;;;;5094658;28;20244;-76
2024/01/19 03:05:17;;;;;;;6.70;1.80;;;0.20;99.90;;;;;;5095439;28;20738;-72
2024/01/19 03:07:43;;;;;;;1.67;1.57;;;0.20;99.90;;;;;;5095597;28;20530;-72
2024/01/19 03:10:09;;;;;;;2.87;2.77;;;0.20;99.90;;;;;;5077264;28;20188;-76
2024/01/19 03:12:34;;;;;;;2.10;2.00;;;0.20;94.50;;;;;;5077281;28;20174;-73
2024/01/19 03:15:00;;;;;;;1.80;1.70;;;0.30;92.50;;;;;;5094362;28;21071;-76
2024/01/19 03:17:27;;;;;;;2.10;2.00;;;0.30;89.40;;;;;;5076976;28;20212;-76
2024/01/19 03:19:53;;;;;;;2.03;1.92;;;0.30;86.70;;;;;;5095313;28;20162;-76
2024/01/19 03:22:18;;;;;;;3.53;2.07;;;0.30;88.00;;;;;;5095316;28;20173;-72
2024/01/19 03:24:44;;;;;;;2.80;1.90;;;0.40;91.40;;;;;;5094188;28;20419;-76
2024/01/19 03:27:10;;;;;;;2.10;2.00;;;0.40;90.60;;;;;;5094989;28;20525;-72
2024/01/19 03:29:36;;;;;;;1.70;1.60;;;0.40;91.70;;;;;;5095182;28;20253;-72
2024/01/19 03:32:01;;;;;;;1.77;1.67;;;0.30;95.20;;;;;;5095056;28;20399;-76
2024/01/19 03:34:27;;;;;;;2.00;1.90;;;0.40;99.90;;;;;;5094148;28;20185;-72
2024/01/19 03:36:53;;;;;;;1.90;1.80;;;0.40;99.90;;;;;;5076916;28;20231;-76
2024/01/19 03:39:18;;;;;;;3.23;2.50;;;0.40;99.90;;;;;;5094807;28;20691;-77
2024/01/19 03:41:44;;;;;;;2.83;2.63;;;0.50;99.90;;;;;;5094858;28;20166;-72
2024/01/19 03:44:10;;;;;;;4.70;2.50;;;0.40;99.90;;;;;;5093843;28;20422;-76
2024/01/19 03:46:35;;;;;;;2.43;2.33;;;0.40;99.90;;;;;;5094495;28;20256;-72
2024/01/19 03:49:01;;;;;;;3.13;2.80;;;0.50;99.90;;;;;;5094642;28;20174;-76
2024/01/19 03:51:27;;;;;;;2.47;2.37;;;0.50;99.90;;;;;;5094648;28;20172;-75
2024/01/19 03:53:52;;;;;;;1.87;1.77;;;0.60;99.90;;;;;;5093624;28;20195;-75
2024/01/19 03:56:18;;;;;;;2.40;2.20;;;0.70;99.90;;;;;;5094500;28;20174;-76
2024/01/19 03:58:44;;;;;;;2.40;2.30;;;0.60;99.90;;;;;;5094525;28;20165;-76
2024/01/19 04:01:10;;;;;;;6.70;2.27;;;0.50;99.90;;;;;;5094337;28;20396;-76
2024/01/19 04:03:36;;;;;;;2.40;2.30;;;0.50;99.90;;;;;;5093600;28;20664;-72
2024/01/19 04:06:02;;;;;;;5.50;2.05;;;0.50;99.90;;;;;;5094244;28;20218;-76
2024/01/19 04:08:28;;;;;;;4.63;2.88;;;0.40;99.90;;;;;;5094284;28;20170;-77
2024/01/19 04:10:54;;;;;;;6.90;2.40;;;0.50;99.90;;;;;;5076107;28;20170;-72
2024/01/19 04:13:20;;;;;;;3.33;2.23;;;0.50;99.90;;;;;;5093295;28;20400;-72
2024/01/19 04:15:45;;;;;;;4.70;2.77;;;0.50;99.90;;;;;;5076032;28;20432;-77
2024/01/19 04:18:11;;;;;;;6.00;2.20;;;0.60;99.90;;;;;;5094126;28;20197;-72
2024/01/19 04:20:37;;;;;;;3.83;2.43;;;0.60;99.90;;;;;;5094223;28;20207;-73
2024/01/19 04:23:03;;;;;;;2.30;2.20;;;0.70;99.90;;;;;;5093135;28;20166;-72
2024/01/19 04:25:28;;;;;;;4.13;3.03;;;0.70;99.90;;;;;;5076003;28;20181;-72
2024/01/19 04:27:55;;;;;;;2.53;2.33;;;0.70;99.90;;;;;;5094044;28;20810;-80
2024/01/19 04:30:21;;;;;;;3.40;2.30;;;0.70;99.90;;;;;;5094006;28;20681;-75
2024/01/19 04:32:46;;;;;;;3.70;2.40;;;0.60;99.90;;;;;;5093661;28;20495;-77
2024/01/19 04:35:12;;;;;;;5.53;2.50;;;0.50;99.90;;;;;;5093198;28;20189;-75
2024/01/19 04:37:38;;;;;;;4.63;2.67;;;0.50;99.90;;;;;;5093626;28;20198;-79
2024/01/19 04:40:04;;;;;;;6.87;2.73;;;0.50;99.90;;;;;;5093358;28;20641;-79
2024/01/19 04:42:29;;;;;;;4.40;2.70;;;0.60;99.90;;;;;;5093778;28;20637;-79
2024/01/19 04:44:55;;;;;;;3.10;2.30;;;0.60;99.90;;;;;;5092795;28;20454;-79
2024/01/19 04:47:21;;;;;;;4.60;2.50;;;0.60;99.90;;;;;;5093716;28;20162;-75
2024/01/19 04:49:47;;;;;;;2.60;2.40;;;0.60;99.90;;;;;;5093628;28;20197;-77
2024/01/19 04:52:13;;;;;;;2.80;2.37;;;0.60;99.90;;;;;;5093580;28;20158;-79
2024/01/19 04:54:39;;;;;;;3.10;2.30;;;0.60;99.90;;;;;;5092751;28;20442;-79
2024/01/19 04:57:04;;;;;;;2.87;2.67;;;0.60;99.90;;;;;;5093530;28;20197;-75
2024/01/19 04:59:31;;;;;;;2.90;2.17;;;0.50;99.90;;;;;;5093531;28;20161;-74
2024/01/19 05:01:57;;;;;;;4.93;2.70;;;0.40;99.90;;;;;;5093495;28;20158;-79
2024/01/19 05:04:22;;;;;;;6.70;2.30;;;0.30;99.90;;;;;;5092454;28;20530;-75
2024/01/19 05:06:48;;;;;;;7.47;3.97;;;0.40;99.90;;;;;;5075363;28;20223;-75
2024/01/19 05:09:14;;;;;;;5.33;3.10;;;0.30;99.90;;;;;;5093581;28;20167;-79
2024/01/19 05:11:40;;;;;;;7.17;2.80;;;0.30;99.90;;;;;;5093408;28;20583;-75
2024/01/19 05:14:06;;;;;;;3.83;2.70;;;0.40;99.90;;;;;;5092415;28;20438;-79
2024/01/19 05:16:32;;;;;;;5.88;2.13;;;0.40;99.90;;;;;;5093276;28;20242;-75
2024/01/19 05:18:58;;;;;;;4.53;1.80;;;0.40;99.90;;;;;;5093424;28;20165;-74
2024/01/19 05:21:24;;;;;;;11.30;3.07;;;0.40;99.90;;;;;;5093343;28;20398;-76
2024/01/19 05:23:49;;;;;;;3.40;2.37;;;0.40;99.90;;;;;;5092254;28;20169;-72
2024/01/19 05:26:15;;;;;;;4.90;3.13;;;0.30;99.90;;;;;;5093231;28;20173;-72
2024/01/19 05:28:41;;;;;;;4.90;2.80;;;0.30;99.90;;;;;;5093363;28;20214;-76
2024/01/19 05:31:07;;;;;;;6.57;2.57;;;0.30;99.90;;;;;;5093254;28;20165;-72
2024/01/19 05:33:34;;;;;;;10.43;2.80;;;0.40;99.90;;;;;;5092351;28;20401;-72
2024/01/19 05:36:01;;;;;;;2.67;2.30;;;0.40;99.90;;;;;;5092875;28;20182;-72
2024/01/19 05:38:26;;;;;;;2.75;2.55;;;0.40;99.90;;;;;;5093156;28;20682;-76
2024/01/19 05:40:52;;;;;;;4.50;2.70;;;0.50;99.90;;;;;;5093215;28;20170;-72
2024/01/19 05:43:18;;;;;;;6.97;2.60;;;0.50;99.90;;;;;;5091940;28;20173;-72
2024/01/19 05:45:43;;;;;;;15.17;4.37;;;0.40;99.90;;;;;;5093102;28;20219;-76
2024/01/19 05:48:09;;;;;;;8.83;3.63;;;0.30;99.90;;;;;;5093000;28;20169;-76
2024/01/19 05:50:35;;;;;;;7.43;3.07;;;0.40;99.90;;;;;;5093014;28;20184;-72
2024/01/19 05:53:00;;;;;;;9.33;2.50;;;0.40;98.00;;;;;;5095482;28;20644;-72
2024/01/19 05:55:26;;;;;;;13.60;3.40;;;0.30;93.40;;;;;;5096872;28;20196;-72
2024/01/19 05:57:52;;;;;;;11.87;2.80;;;0.40;90.90;;;;;;5096851;28;20566;-72
2024/01/19 06:00:18;;;;;;;5.83;3.50;;;0.30;77.90;;;;;;5096760;28;20685;-73
2024/01/19 06:02:43;;;;;;;7.20;2.50;;;0.30;73.90;;;;;;5096748;28;20533;-72
2024/01/19 06:05:09;;;;;;;8.47;3.93;;;0.30;61.50;;;;;;5095873;28;20522;-76
2024/01/19 06:07:35;;;;;;;7.23;3.33;;;0.30;32.20;;;;;;5096716;28;20182;-76
2024/01/19 06:10:00;;;;;;;4.97;2.90;;;0.20;9.30;;;;;;5096645;28;20169;-72
2024/01/19 06:12:26;;;;;;;6.00;3.67;;;0.20;1.00;;;;;;5096615;28;20195;-76
2024/01/19 06:14:52;;;;;;;6.80;3.23;;;0.30;1.00;;;;;;5095641;28;20545;-72
2024/01/19 06:17:18;;;;;;;5.03;2.23;;;0.20;1.00;;;;;;5096507;28;20981;-75
2024/01/19 06:19:43;;;;;;;4.73;2.73;;;0.20;1.00;;;;;;5096471;28;20173;-75
2024/01/19 06:22:10;;;;;;;4.23;2.73;;;0.30;1.00;;;;;;5096331;28;20635;-72
2024/01/19 06:24:36;;;;;;;7.90;4.47;;;0.20;1.00;;;;;;5077450;28;20195;-75
2024/01/19 06:27:03;;;;;;;4.65;2.92;;;0.20;1.00;;;;;;5096376;28;20173;-76
2024/01/19 06:29:29;;;;;;;7.45;2.95;;;0.20;1.00;;;;;;5096333;28;20633;-75
2024/01/19 06:31:54;;;;;;;6.97;2.93;;;0.20;1.00;;;;;;5078331;28;20203;-73
2024/01/19 06:34:20;;;;;;;4.47;2.90;;;0.20;1.00;;;;;;5095061;28;20204;-75
2024/01/19 06:36:46;;;;;;;8.30;2.60;;;0.20;1.00;;;;;;5096096;28;20205;-76
2024/01/19 06:39:15;;;;;;;4.43;2.70;;;0.20;1.00;;;;;;5096123;28;20242;-73
2024/01/19 06:41:42;;;;;;;5.70;2.75;;;0.10;1.00;;;;;;5078192;28;20235;-72
2024/01/19 06:44:09;;;;;;;12.50;2.70;;;0.10;1.00;;;;;;5095066;28;20200;-72
2024/01/19 06:46:35;;;;;;;13.02;3.00;;;0.10;1.00;;;;;;5095838;28;20197;-72
2024/01/19 06:49:00;;;;;;;8.40;2.60;;;0.00;1.00;;;;;;5077972;28;20205;-76
2024/01/19 06:51:28;;;;;;;3.63;2.40;;;0.00;1.00;;;;;;5078007;28;20629;-72
2024/01/19 06:53:55;;;;;;;6.10;2.28;;;0.00;1.00;;;;;;5094913;28;20158;-75
2024/01/19 06:56:20;;;;;;;2.83;2.42;;;0.00;1.00;;;;;;5095654;28;20173;-74
2024/01/19 06:58:46;;;;;;;3.40;2.30;;;0.00;1.00;;;;;;5095629;28;20169;-72
2024/01/19 07:01:12;;;;;;;4.80;2.50;;;-0.10;1.00;;;;;;5095547;28;20166;-72
2024/01/19 07:03:37;;;;;;;6.93;2.20;;;-0.10;1.00;;;;;;5094228;28;20169;-73
2024/01/19 07:06:03;;;;;;;3.00;2.43;;;-0.10;1.00;;;;;;5077303;28;20649;-72
2024/01/19 07:08:29;;;;;;;4.03;3.73;;;-0.10;1.00;;;;;;5077176;28;20177;-75
2024/01/19 07:10:55;;;;;;;4.27;2.27;;;-0.10;1.00;;;;;;5077492;28;20526;-72
2024/01/19 07:13:20;;;;;;;9.13;2.70;;;-0.10;1.00;;;;;;5094491;28;20545;-76
2024/01/19 07:15:46;;;;;;;3.33;2.37;;;-0.20;1.00;;;;;;5095253;28;20551;-75
2024/01/19 07:18:12;;;;;;;8.43;2.33;;;-0.20;1.00;;;;;;5095123;28;20286;-72
2024/01/19 07:20:37;;;;;;;17.37;3.23;;;-0.20;1.00;;;;;;5095190;28;20200;-76
2024/01/19 07:23:03;;;;;;;7.67;2.80;;;-0.10;1.00;;;;;;5094255;28;20522;-73
2024/01/19 07:25:29;;;;;;;13.70;2.73;;;-0.20;1.00;;;;;;5095125;28;20523;-75
2024/01/19 07:27:55;;;;;;;2.73;2.60;;;-0.20;1.00;;;;;;5095187;28;20403;-75
2024/01/19 07:30:20;;;;;;;6.17;2.57;;;-0.20;1.00;;;;;;5095084;28;20760;-72
2024/01/19 07:32:46;;;;;;;7.47;3.03;;;-0.20;1.00;;;;;;5094639;28;20173;-74
2024/01/19 07:35:12;;;;;;;5.43;3.00;;;-0.20;1.00;;;;;;5094232;28;20215;-72
2024/01/19 07:37:38;;;;;;;4.73;2.80;;;-0.20;1.00;;;;;;5094890;28;20277;-74
2024/01/19 07:40:04;;;;;;;9.43;2.77;;;-0.20;99.90;;;;;;5094939;28;20622;-73
2024/01/19 07:42:29;;;;;;;7.47;3.97;;;-0.10;99.90;;;;;;5094870;28;20174;-72
2024/01/19 07:44:55;;;;;;;7.13;2.70;;;-0.10;99.90;;;;;;5093796;28;20190;-75
2024/01/19 07:47:21;;;;;;;12.33;3.67;;;-0.10;99.90;;;;;;5094723;28;20222;-75
2024/01/19 07:49:46;;;;;;;10.13;3.83;;;-0.10;99.90;;;;;;5076826;28;20276;-73
2024/01/19 07:52:12;;;;;;;7.80;3.13;;;-0.10;99.90;;;;;;5094631;28;20177;-73
2024/01/19 07:54:38;;;;;;;5.00;2.80;;;-0.10;99.90;;;;;;5093779;28;20687;-73
2024/01/19 07:57:03;;;;;;;3.83;3.10;;;-0.10;99.90;;;;;;5076406;28;20205;-75
2024/01/19 07:59:29;;;;;;;5.87;3.00;;;-0.10;99.90;;;;;;5094593;28;20165;-72
2024/01/19 08:01:55;;;;;;;3.80;3.50;;;-0.10;99.90;;;;;;5076510;28;20622;-75
2024/01/19 08:04:20;;;;;;;6.90;4.27;;;-0.10;99.90;;;;;;5093520;28;20198;-75
2024/01/19 08:06:46;;;;;;;8.60;3.57;;;-0.10;99.90;;;;;;5094408;28;20177;-75
2024/01/19 08:09:13;;;;;;;6.00;4.50;;;0.00;99.90;;;;;;5094335;28;20178;-75
2024/01/19 08:11:39;;;;;;;5.22;2.60;;;0.10;99.90;;;;;;5094340;28;20166;-75
2024/01/19 08:14:05;;;;;;;10.32;3.78;;;0.10;99.90;;;;;;5092592;28;20228;-72
2024/01/19 08:16:30;;;;;;;11.70;3.33;;;0.10;99.90;;;;;;5076185;28;20562;-75
2024/01/19 08:18:56;;;;;;;18.53;3.90;;;0.10;99.90;;;;;;5094238;28;20180;-74
2024/01/19 08:21:23;;;;;;;3.90;3.33;;;0.20;99.90;;;;;;5094084;28;20160;-75
2024/01/19 08:23:49;;;;;;;15.50;4.57;;;0.10;99.90;;;;;;5093101;28;20158;-72
2024/01/19 08:26:15;;;;;;;10.30;3.63;;;0.10;99.90;;;;;;5076086;28;20772;-72
2024/01/19 08:28:45;;;;;;;10.40;3.60;;;0.10;99.90;;;;;;5093828;28;20166;-75
2024/01/19 08:31:13;;;;;;;13.93;4.07;;;0.10;99.90;;;;;;5093657;28;20184;-75
2024/01/19 08:33:39;;;;;;;14.97;4.73;;;0.20;99.90;;;;;;5092773;28;20402;-73
2024/01/19 08:36:05;;;;;;;6.50;5.00;;;0.30;99.90;;;;;;5093891;28;20889;-72
2024/01/19 08:38:30;;;;;;;5.90;3.10;;;0.30;99.90;;;;;;5093677;28;20250;-72
2024/01/19 08:40:56;;;;;;;9.47;3.87;;;0.30;99.90;;;;;;5093812;28;20207;-72
2024/01/19 08:43:22;;;;;;;14.83;4.13;;;0.30;99.90;;;;;;5074876;28;20173;-75
2024/01/19 08:45:48;;;;;;;15.10;5.17;;;0.20;99.90;;;;;;5093603;28;20188;-72
2024/01/19 08:48:13;;;;;;;10.83;4.30;;;0.30;99.90;;;;;;5093702;28;20236;-75
2024/01/19 08:50:40;;;;;;;12.97;4.40;;;0.30;99.90;;;;;;5093736;28;20261;-72
2024/01/19 08:53:06;;;;;;;16.57;4.53;;;0.30;99.90;;;;;;5092939;28;20165;-75
2024/01/19 08:55:32;;;;;;;6.40;3.20;;;0.40;99.90;;;;;;5093279;28;20438;-75
2024/01/19 08:57:58;;;;;;;4.50;4.07;;;0.50;99.90;;;;;;5093451;28;20461;-75
2024/01/19 09:00:23;;;;;;;6.53;3.13;;;0.50;99.90;;;;;;5075648;28;20260;-72
2024/01/19 09:02:49;;;;;;;11.90;3.70;;;0.60;99.90;;;;;;5074964;28;20198;-73
2024/01/19 09:05:15;;;;;;;7.87;3.10;;;0.80;99.90;;;;;;5075172;28;20624;-77
2024/01/19 09:07:41;;;;;;;9.67;4.30;;;0.90;99.90;;;;;;5093363;28;20486;-77
2024/01/19 09:10:07;;;;;;;10.73;4.63;;;1.00;99.90;;;;;;5093446;28;20490;-75
2024/01/19 09:12:33;;;;;;;10.53;3.23;;;1.20;99.90;;;;;;5075177;28;20454;-78
2024/01/19 09:14:59;;;;;;;14.70;3.50;;;1.20;99.90;;;;;;5092351;28;20435;-75
2024/01/19 09:17:25;;;;;;;10.70;3.17;;;1.20;99.90;;;;;;5093289;28;20447;-76
2024/01/19 09:19:51;;;;;;;8.10;3.77;;;1.20;99.90;;;;;;5093318;28;20671;-75
2024/01/19 09:22:17;;;;;;;13.43;3.13;;;1.20;99.90;;;;;;5093351;28;20162;-77
2024/01/19 09:24:43;;;;;;;10.43;3.40;;;1.10;99.90;;;;;;5092377;28;20779;-75
2024/01/19 09:27:09;;;;;;;6.30;3.20;;;1.20;99.90;;;;;;5096701;28;20597;-77
2024/01/19 09:29:35;;;;;;;7.13;3.87;;;1.20;99.90;;;;;;5097337;28;20208;-75
2024/01/19 09:32:01;;;;;;;4.57;3.07;;;1.20;99.90;;;;;;5097338;28;20395;-74
2024/01/19 09:34:26;;;;;;;15.87;4.73;;;1.20;99.90;;;;;;5078222;28;20195;-77
2024/01/19 09:36:52;;;;;;;8.50;3.10;;;1.30;99.90;;;;;;5097150;28;20533;-75
2024/01/19 09:39:19;;;;;;;5.47;2.70;;;1.40;99.90;;;;;;5097287;28;20629;-74
2024/01/19 09:41:51;;;;;;;8.43;3.90;;;1.40;99.90;;;;;;5097111;28;20209;-75
2024/01/19 09:44:20;;;;;;;7.93;3.37;;;1.60;99.90;;;;;;5096494;28;20436;-78
2024/01/19 09:46:58;;;;;;;8.20;3.70;;;1.60;99.90;;;;;;5097191;28;20396;-77
2024/01/19 09:49:45;;;;;;;7.00;3.57;;;1.70;99.90;;;;;;5096860;28;20899;-75
2024/01/19 09:52:22;;;;;;;7.00;3.00;;;1.80;99.90;;;;;;5096979;28;20425;-77
2024/01/19 09:54:48;;;;;;;5.97;2.67;;;1.80;99.90;;;;;;5095984;28;20481;-74
2024/01/19 09:57:14;;;;;;;12.23;3.20;;;1.90;99.90;;;;;;5096939;28;20443;-77
2024/01/19 09:59:40;;;;;;;8.60;2.43;;;1.90;99.90;;;;;;5096873;28;20418;-76
2024/01/19 10:02:08;;;;;;;8.00;2.67;;;2.10;99.90;;;;;;5096775;28;20513;-77
2024/01/19 10:04:34;;;;;;;5.30;2.40;;;2.30;99.90;;;;;;5095750;28;20431;-77
2024/01/19 10:07:01;;;;;;;8.60;2.10;;;2.30;99.90;;;;;;5077967;28;20460;-78
2024/01/19 10:09:28;;;;;;;10.73;3.40;;;2.40;99.90;;;;;;5078531;28;20831;-77
2024/01/19 10:11:54;;;;;;;8.40;2.80;;;2.30;99.90;;;;;;5096625;28;20395;-75
2024/01/19 10:14:21;;;;;;;4.03;2.90;;;2.30;99.90;;;;;;5095575;28;20523;-74
2024/01/19 10:16:53;;;;;;;9.17;2.83;;;2.20;99.90;;;;;;5085999;28;20919;-77
2024/01/19 10:19:21;;;;;;;3.27;3.00;;;2.20;99.90;;;;;;5084630;28;20420;-78
2024/01/19 10:21:47;;;;;;;5.23;2.40;;;2.20;99.90;;;;;;5088382;28;20411;-77
2024/01/19 10:24:14;;;;;;;13.77;3.40;;;2.10;99.90;;;;;;5056720;28;20427;-77
2024/01/19 10:26:46;;;;;;;6.77;3.43;;;2.20;99.90;;;;;;5075338;28;20489;-77
2024/01/19 10:29:16;;;;;;;8.47;3.10;;;2.20;99.90;;;;;;5075439;28;20488;-75
2024/01/19 10:31:47;;;;;;;4.67;2.80;;;2.30;99.90;;;;;;5075389;28;20396;-77
2024/01/19 10:34:19;;;;;;;10.53;3.13;;;2.40;99.90;;;;;;5074186;28;20959;-76
2024/01/19 10:36:46;;;;;;;6.63;3.03;;;2.30;99.90;;;;;;5082809;28;20451;-76
2024/01/19 10:39:17;;;;;;;8.60;3.57;;;2.30;99.90;;;;;;5075678;28;20401;-78
2024/01/19 10:41:43;;;;;;;2.10;1.90;;;2.40;99.90;;;;;;5075866;28;20722;-77
2024/01/19 10:44:15;;;;;;;5.30;2.13;;;2.40;99.90;;;;;;5074844;28;20515;-75
2024/01/19 10:46:40;;;;;;;3.40;2.83;;;2.50;99.90;;;;;;5075657;28;20169;-75
2024/01/19 10:49:08;;;;;;;4.13;2.40;;;2.50;99.90;;;;;;5075778;28;20955;-77
2024/01/19 10:51:46;;;;;;;5.60;2.30;;;2.50;99.90;;;;;;5074432;28;20225;-75
2024/01/19 10:54:17;;;;;;;6.30;2.60;;;2.50;99.90;;;;;;5077295;28;20448;-75
2024/01/19 10:56:46;;;;;;;13.20;3.63;;;2.50;99.90;;;;;;5057407;28;20420;-75
2024/01/19 10:59:15;;;;;;;6.40;2.10;;;2.50;99.90;;;;;;5057635;28;20409;-75
2024/01/19 11:01:42;;;;;;;11.00;2.53;;;2.50;99.90;;;;;;5075621;28;20400;-75
2024/01/19 11:04:09;;;;;;;9.73;3.03;;;2.60;99.90;;;;;;5074422;28;20482;-75
2024/01/19 11:06:38;;;;;;;6.90;3.23;;;2.60;99.90;;;;;;5075252;28;20400;-78
2024/01/19 11:09:08;;;;;;;10.77;3.23;;;2.60;99.90;;;;;;5075341;28;20393;-75
2024/01/19 11:11:44;;;;;;;4.50;2.70;;;2.60;99.90;;;;;;5078114;28;20462;-78
2024/01/19 11:14:15;;;;;;;15.80;2.80;;;2.60;99.90;;;;;;5074293;28;20421;-79
2024/01/19 11:16:47;;;;;;;3.57;2.70;;;2.60;99.90;;;;;;5074980;28;20450;-79
2024/01/19 11:19:15;;;;;;;5.90;2.30;;;2.70;99.90;;;;;;5075137;28;20924;-79
2024/01/19 11:21:43;;;;;;;8.80;2.47;;;2.70;99.90;;;;;;5075104;28;20397;-78
2024/01/19 11:24:10;;;;;;;6.43;2.77;;;2.70;99.90;;;;;;5074040;28;20757;-74
2024/01/19 11:27:09;;;;;;;4.27;2.57;;;2.80;99.90;;;;;;5074947;28;20488;-78
2024/01/19 11:29:43;;;;;;;2.50;2.10;;;2.70;99.90;;;;;;5075643;28;20443;-75
2024/01/19 11:32:11;;;;;;;3.90;2.50;;;2.60;99.90;;;;;;5082211;28;20416;-74
2024/01/19 11:34:39;;;;;;;2.50;2.30;;;2.60;99.90;;;;;;5076089;28;20459;-78
2024/01/19 11:37:05;;;;;;;8.03;3.50;;;2.70;99.90;;;;;;5056486;28;20986;-75
2024/01/19 11:39:41;;;;;;;6.93;2.50;;;2.80;99.90;;;;;;5074740;28;20405;-79
2024/01/19 11:42:08;;;;;;;7.03;3.97;;;2.90;99.90;;;;;;5074650;28;20239;-74
2024/01/19 11:44:45;;;;;;;4.67;2.63;;;3.00;99.90;;;;;;5073614;28;20827;-74
2024/01/19 11:47:35;;;;;;;3.00;2.13;;;2.90;99.90;;;;;;5074524;28;20403;-79
2024/01/19 11:50:05;;;;;;;3.90;2.50;;;2.90;99.90;;;;;;5073426;28;20426;-74
2024/01/19 11:52:35;;;;;;;12.27;2.53;;;3.00;99.90;;;;;;5077040;28;20439;-78
2024/01/19 11:55:26;;;;;;;1.77;1.67;;;2.90;99.90;;;;;;5074242;28;20440;-75
2024/01/19 11:57:52;;;;;;;2.57;1.77;;;2.90;99.90;;;;;;5074264;28;20951;-79
2024/01/19 12:00:19;;;;;;;2.37;2.27;;;2.80;99.90;;;;;;5056343;28;20459;-73
2024/01/19 12:02:45;;;;;;;3.47;1.73;;;2.70;99.90;;;;;;5074108;28;20905;-73
2024/01/19 12:05:12;;;;;;;5.33;2.30;;;2.70;99.90;;;;;;5055670;28;20459;-79
2024/01/19 12:07:39;;;;;;;2.20;2.10;;;2.60;99.90;;;;;;5074102;28;20417;-68
2024/01/19 12:10:16;;;;;;;2.63;1.90;;;2.60;99.90;;;;;;5073037;28;20392;-70
2024/01/19 12:12:42;;;;;;;2.47;2.27;;;2.50;99.90;;;;;;5079359;28;20900;-71
2024/01/19 12:15:10;;;;;;;5.50;2.30;;;2.50;99.90;;;;;;5073106;28;20955;-71
2024/01/19 12:17:40;;;;;;;2.90;2.13;;;2.60;99.90;;;;;;5073812;28;20444;-71
2024/01/19 12:20:09;;;;;;;3.53;2.20;;;2.60;99.90;;;;;;5073751;28;20396;-80
2024/01/19 12:22:35;;;;;;;2.60;2.40;;;2.60;99.90;;;;;;5073870;28;20404;-72
2024/01/19 12:25:22;;;;;;;2.47;2.27;;;2.70;99.90;;;;;;5071804;28;20439;-70
2024/01/19 12:27:48;;;;;;;6.60;2.80;;;2.70;99.90;;;;;;5073017;28;20404;-70
2024/01/19 12:30:21;;;;;;;2.03;1.70;;;2.70;99.90;;;;;;5078157;28;20924;-70
2024/01/19 12:32:49;;;;;;;2.27;2.17;;;2.70;99.90;;;;;;5073384;28;20397;-77
2024/01/19 12:35:21;;;;;;;3.00;2.40;;;2.70;99.90;;;;;;5073507;28;20788;-81
2024/01/19 12:37:47;;;;;;;1.90;1.80;;;2.60;99.90;;;;;;5073686;28;20448;-72
2024/01/19 12:40:14;;;;;;;4.37;2.20;;;2.60;99.90;;;;;;5073601;28;20403;-71
2024/01/19 12:42:41;;;;;;;9.40;2.30;;;2.70;99.90;;;;;;5055477;28;20474;-74
2024/01/19 12:45:08;;;;;;;2.10;2.00;;;2.60;99.90;;;;;;5054748;28;20428;-80
2024/01/19 12:47:34;;;;;;;6.30;1.93;;;2.70;99.90;;;;;;5079789;28;20421;-80
2024/01/19 12:50:00;;;;;;;3.63;1.90;;;2.80;99.90;;;;;;5093354;28;20441;-74
2024/01/19 12:52:26;;;;;;;2.50;1.67;;;2.90;99.90;;;;;;5082891;28;20432;-80